Time;durP1;ratioP1;P1;durP2;ratioP2;P2;SDS_P1;SDS_P2;PMS_P1;PMS_P2;Temp;Humidity;BMP_temperature;BMP_pressure;BME280_temperature;BME280_humidity;BME280_pressure;Samples;Min_cycle;Max_cycle;Signal;HPM_P1;HPM_P2
2023/12/04 00:02:02;;;;;;;14.00;6.75;;;;;;;;;;5816294;28;20460;-70
2023/12/04 00:04:53;;;;;;;9.52;4.90;;;;;;;;;;5831461;28;20046;-70
2023/12/04 00:07:44;;;;;;;13.80;7.03;;;;;;;;;;5815993;28;20058;-71
2023/12/04 00:10:35;;;;;;;21.20;6.78;;;;;;;;;;5815947;28;20049;-70
2023/12/04 00:13:25;;;;;;;12.95;6.15;;;;;;;;;;5814984;28;20887;-70
2023/12/04 00:16:16;;;;;;;9.18;5.38;;;;;;;;;;5830873;28;20053;-70
2023/12/04 00:19:09;;;;;;;20.75;5.78;;;;;;;;;;5818098;28;20046;-71
2023/12/04 00:22:00;;;;;;;12.65;5.80;;;;;;;;;;5819493;28;20038;-70
2023/12/04 00:24:50;;;;;;;12.55;5.75;;;;;;;;;;5851837;28;20049;-70
2023/12/04 00:27:41;;;;;;;19.13;8.23;;;;;;;;;;5851238;28;20105;-70
2023/12/04 00:30:32;;;;;;;12.07;4.93;;;;;;;;;;5820193;28;20173;-70
2023/12/04 00:33:23;;;;;;;19.00;7.38;;;;;;;;;;5819821;28;20058;-70
2023/12/04 00:36:14;;;;;;;19.65;7.38;;;;;;;;;;5819910;28;20070;-70
2023/12/04 00:39:05;;;;;;;12.63;6.55;;;;;;;;;;5819705;28;20058;-70
2023/12/04 00:41:56;;;;;;;11.07;5.90;;;;;;;;;;5820498;28;20042;-70
2023/12/04 00:44:47;;;;;;;11.30;7.28;;;;;;;;;;5818471;28;20524;-70
2023/12/04 00:47:37;;;;;;;19.17;8.32;;;;;;;;;;5819789;28;20042;-70
2023/12/04 00:50:28;;;;;;;14.43;6.82;;;;;;;;;;5819656;28;20050;-70
2023/12/04 00:53:43;;;;;;;8.32;4.88;;;;;;;;;;5819859;28;20460;-70
2023/12/04 00:56:34;;;;;;;14.57;8.02;;;;;;;;;;5819680;28;20057;-70
2023/12/04 00:59:24;;;;;;;17.67;8.95;;;;;;;;;;5817981;28;20097;-70
2023/12/04 01:02:15;;;;;;;25.80;7.97;;;;;;;;;;5811903;28;20057;-70
2023/12/04 01:05:06;;;;;;;13.15;6.90;;;;;;;;;;5799588;28;20050;-71
2023/12/04 01:07:57;;;;;;;11.52;5.60;;;;;;;;;;5797042;28;20043;-70
2023/12/04 01:10:47;;;;;;;12.07;6.70;;;;;;;;;;5796689;28;20417;-70
2023/12/04 01:13:38;;;;;;;12.32;6.90;;;;;;;;;;5795081;28;20051;-70
2023/12/04 01:16:29;;;;;;;12.73;6.88;;;;;;;;;;5795258;28;20413;-70
2023/12/04 01:19:20;;;;;;;18.08;7.80;;;;;;;;;;5796328;28;20051;-70
2023/12/04 01:22:10;;;;;;;23.42;7.68;;;;;;;;;;5796350;28;20446;-70
2023/12/04 01:25:03;;;;;;;19.25;8.70;;;;;;;;;;5778775;28;20074;-71
2023/12/04 01:27:54;;;;;;;15.63;6.72;;;;;;;;;;5795389;28;20053;-70
2023/12/04 01:30:45;;;;;;;11.55;7.15;;;;;;;;;;5795101;28;20046;-70
2023/12/04 01:33:35;;;;;;;17.90;6.68;;;;;;;;;;5794385;28;20047;-70
2023/12/04 01:36:26;;;;;;;11.00;6.70;;;;;;;;;;5794720;28;20051;-70
2023/12/04 01:39:17;;;;;;;14.10;6.18;;;;;;;;;;5794564;28;20059;-70
2023/12/04 01:42:08;;;;;;;18.30;7.05;;;;;;;;;;5795850;28;20428;-70
2023/12/04 01:44:59;;;;;;;12.32;6.45;;;;;;;;;;5796347;28;20550;-70
2023/12/04 01:47:50;;;;;;;22.33;7.65;;;;;;;;;;5794744;28;20050;-70
2023/12/04 01:50:41;;;;;;;19.20;7.53;;;;;;;;;;5810106;28;20046;-70
2023/12/04 01:53:32;;;;;;;12.32;7.85;;;;;;;;;;5794335;28;20047;-70
2023/12/04 01:56:24;;;;;;;11.25;6.90;;;;;;;;;;5795677;28;20053;-70
2023/12/04 01:59:15;;;;;;;15.00;8.23;;;;;;;;;;5810155;28;20066;-70
2023/12/04 02:02:06;;;;;;;8.43;5.70;;;;;;;;;;5794149;28;20054;-70
2023/12/04 02:04:59;;;;;;;17.30;6.18;;;;;;;;;;5794568;28;20047;-69
2023/12/04 02:07:50;;;;;;;19.88;8.38;;;;;;;;;;5778488;28;20053;-71
2023/12/04 02:10:40;;;;;;;20.33;6.88;;;;;;;;;;5793928;28;20126;-70
2023/12/04 02:13:31;;;;;;;13.60;6.43;;;;;;;;;;5795239;28;20043;-70
2023/12/04 02:16:25;;;;;;;14.63;6.72;;;;;;;;;;5793908;28;20054;-70
2023/12/04 02:19:16;;;;;;;16.17;6.03;;;;;;;;;;5793740;28;20070;-70
2023/12/04 02:22:07;;;;;;;23.98;10.18;;;;;;;;;;5777748;28;20134;-70
2023/12/04 02:25:00;;;;;;;18.33;7.22;;;;;;;;;;5794203;28;20058;-70
2023/12/04 02:27:53;;;;;;;16.85;8.07;;;;;;;;;;5809600;28;20052;-70
2023/12/04 02:30:47;;;;;;;15.15;6.80;;;;;;;;;;5809412;28;20049;-70
2023/12/04 02:33:40;;;;;;;12.70;6.10;;;;;;;;;;5809399;28;20501;-70
2023/12/04 02:36:32;;;;;;;15.40;7.85;;;;;;;;;;5793684;28;20055;-70
2023/12/04 02:39:22;;;;;;;9.38;5.45;;;;;;;;;;5793356;28;20049;-70
2023/12/04 02:42:13;;;;;;;15.40;5.75;;;;;;;;;;5794614;28;20397;-70
2023/12/04 02:45:05;;;;;;;15.63;8.10;;;;;;;;;;5793325;28;20518;-70
2023/12/04 02:47:56;;;;;;;9.85;6.05;;;;;;;;;;5793806;28;20047;-70
2023/12/04 02:50:47;;;;;;;17.00;7.93;;;;;;;;;;5794532;28;20043;-70
2023/12/04 02:53:37;;;;;;;11.70;6.07;;;;;;;;;;5777169;28;20047;-70
2023/12/04 02:56:28;;;;;;;15.75;6.53;;;;;;;;;;5793166;28;20050;-70
2023/12/04 02:59:19;;;;;;;14.27;7.40;;;;;;;;;;5792950;28;20058;-70
2023/12/04 03:02:10;;;;;;;20.15;7.75;;;;;;;;;;5794255;28;20051;-70
2023/12/04 03:05:01;;;;;;;13.73;6.45;;;;;;;;;;5793053;28;20117;-71
2023/12/04 03:07:52;;;;;;;9.07;6.65;;;;;;;;;;5794727;28;20061;-70
2023/12/04 03:10:42;;;;;;;12.82;7.05;;;;;;;;;;5792842;28;20047;-70
2023/12/04 03:13:34;;;;;;;14.35;6.18;;;;;;;;;;5792874;28;20385;-70
2023/12/04 03:16:25;;;;;;;17.30;6.70;;;;;;;;;;5792962;28;20050;-70
2023/12/04 03:19:16;;;;;;;15.57;7.18;;;;;;;;;;5776764;28;20055;-70
2023/12/04 03:22:07;;;;;;;17.30;6.50;;;;;;;;;;5794153;28;20421;-70
2023/12/04 03:24:58;;;;;;;13.45;7.28;;;;;;;;;;5793317;28;20058;-70
2023/12/04 03:27:49;;;;;;;20.55;9.77;;;;;;;;;;5794138;28;20050;-70
2023/12/04 03:30:40;;;;;;;14.98;6.55;;;;;;;;;;5794037;28;20046;-70
2023/12/04 03:33:31;;;;;;;30.50;8.70;;;;;;;;;;5776716;28;20394;-70
2023/12/04 03:36:21;;;;;;;17.02;6.55;;;;;;;;;;5792837;28;20046;-70
2023/12/04 03:39:12;;;;;;;13.55;7.47;;;;;;;;;;5808616;28;20042;-70
2023/12/04 03:42:03;;;;;;;12.85;7.00;;;;;;;;;;5776726;28;20059;-70
2023/12/04 03:44:54;;;;;;;17.02;7.03;;;;;;;;;;5794656;28;20054;-70
2023/12/04 03:47:45;;;;;;;12.07;6.50;;;;;;;;;;5808654;28;20066;-70
2023/12/04 03:50:36;;;;;;;23.58;7.93;;;;;;;;;;5776845;28;20489;-70
2023/12/04 03:53:27;;;;;;;8.98;5.22;;;;;;;;;;5795229;28;20437;-70
2023/12/04 03:56:17;;;;;;;11.80;6.10;;;;;;;;;;5813049;28;20055;-70
2023/12/04 03:59:10;;;;;;;10.80;6.07;;;;;;;;;;5796719;28;20149;-71
2023/12/04 04:02:01;;;;;;;12.25;6.22;;;;;;;;;;5797006;28;20054;-71
2023/12/04 04:04:51;;;;;;;16.33;6.93;;;;;;;;;;5798510;28;20057;-70
2023/12/04 04:07:42;;;;;;;18.35;7.95;;;;;;;;;;5796733;28;20042;-70
2023/12/04 04:10:34;;;;;;;12.05;6.97;;;;;;;;;;5796445;28;20051;-70
2023/12/04 04:13:25;;;;;;;19.67;7.03;;;;;;;;;;5796561;28;20050;-70
2023/12/04 04:16:16;;;;;;;8.35;4.65;;;;;;;;;;5797731;28;20059;-70
2023/12/04 04:19:07;;;;;;;12.32;6.72;;;;;;;;;;5797579;28;20105;-70
2023/12/04 04:21:58;;;;;;;12.18;7.00;;;;;;;;;;5829004;28;20043;-70
2023/12/04 04:24:49;;;;;;;13.52;5.20;;;;;;;;;;5797676;28;20054;-70
2023/12/04 04:27:40;;;;;;;29.98;8.50;;;;;;;;;;5797493;28;20051;-70
2023/12/04 04:30:30;;;;;;;14.02;6.32;;;;;;;;;;5796075;28;20114;-70
2023/12/04 04:33:21;;;;;;;18.33;8.00;;;;;;;;;;5828414;28;20047;-70
2023/12/04 04:36:12;;;;;;;24.33;7.63;;;;;;;;;;5796114;28;20058;-70
2023/12/04 04:39:03;;;;;;;22.10;6.65;;;;;;;;;;5795722;28;20082;-70
2023/12/04 04:41:54;;;;;;;27.55;9.52;;;;;;;;;;5796581;28;20046;-70
2023/12/04 04:44:44;;;;;;;30.23;10.00;;;;;;;;;;5797203;28;20042;-70
2023/12/04 04:47:35;;;;;;;50.70;10.93;;;;;;;;;;5828141;28;20408;-70
2023/12/04 04:50:26;;;;;;;25.63;11.40;;;;;;;;;;5797170;28;20058;-70
2023/12/04 04:53:17;;;;;;;33.60;9.68;;;;;;;;;;5795732;28;20137;-70
2023/12/04 04:56:09;;;;;;;16.33;7.57;;;;;;;;;;5796792;28;20046;-69
2023/12/04 04:58:59;;;;;;;16.10;7.22;;;;;;;;;;5795966;28;20046;-69
2023/12/04 05:01:50;;;;;;;19.67;6.20;;;;;;;;;;5797076;28;20042;-70
2023/12/04 05:04:41;;;;;;;28.02;10.23;;;;;;;;;;5795212;28;20453;-70
2023/12/04 05:07:32;;;;;;;33.88;10.07;;;;;;;;;;5811540;28;20047;-70
2023/12/04 05:10:23;;;;;;;25.58;9.52;;;;;;;;;;5796588;28;20042;-70
2023/12/04 05:13:13;;;;;;;24.05;9.23;;;;;;;;;;5779187;28;20047;-70
2023/12/04 05:16:05;;;;;;;23.35;9.55;;;;;;;;;;5795276;28;20057;-70
2023/12/04 05:18:55;;;;;;;37.85;10.05;;;;;;;;;;5795636;28;20616;-70
2023/12/04 05:21:46;;;;;;;12.05;9.00;;;;;;;;;;5796501;28;20405;-70
2023/12/04 05:24:37;;;;;;;14.98;7.75;;;;;;;;;;5796371;28;20141;-70
2023/12/04 05:27:28;;;;;;;14.52;7.22;;;;;;;;;;5796393;28;20080;-70
2023/12/04 05:30:19;;;;;;;30.90;11.18;;;;;;;;;;5778856;28;20059;-70
2023/12/04 05:33:09;;;;;;;26.92;8.27;;;;;;;;;;5795963;28;20057;-70
2023/12/04 05:36:01;;;;;;;24.10;9.18;;;;;;;;;;5794931;28;20047;-72
2023/12/04 05:38:53;;;;;;;12.25;8.00;;;;;;;;;;5811016;28;20046;-70
2023/12/04 05:41:45;;;;;;;15.02;7.93;;;;;;;;;;5794724;28;20068;-70
2023/12/04 05:44:36;;;;;;;27.25;10.65;;;;;;;;;;5826886;28;20054;-70
2023/12/04 05:47:26;;;;;;;15.02;8.73;;;;;;;;;;5795772;28;20043;-70
2023/12/04 05:50:18;;;;;;;22.95;10.02;;;;;;;;;;5795778;28;20196;-70
2023/12/04 05:53:09;;;;;;;27.20;11.82;;;;;;;;;;5794510;28;20051;-70
2023/12/04 05:55:59;;;;;;;27.92;13.52;;;;;;;;;;5827299;28;20062;-70
2023/12/04 05:58:50;;;;;;;43.28;13.23;;;;;;;;;;5795493;28;20054;-70
2023/12/04 06:01:41;;;;;;;26.60;14.07;;;;;;;;;;5795588;28;20054;-70
2023/12/04 06:04:31;;;;;;;29.40;12.65;;;;;;;;;;5796305;28;20051;-70
2023/12/04 06:07:22;;;;;;;37.03;14.88;;;;;;;;;;5794596;28;20051;-70
2023/12/04 06:10:13;;;;;;;29.92;13.93;;;;;;;;;;5794105;28;20054;-70
2023/12/04 06:13:04;;;;;;;36.95;14.70;;;;;;;;;;5793954;28;20058;-70
2023/12/04 06:15:55;;;;;;;35.33;13.38;;;;;;;;;;5794179;28;20540;-70
2023/12/04 06:18:45;;;;;;;36.95;11.48;;;;;;;;;;5809870;28;20046;-70
2023/12/04 06:21:36;;;;;;;33.75;13.02;;;;;;;;;;5793720;28;20054;-70
2023/12/04 06:24:27;;;;;;;31.75;12.00;;;;;;;;;;5826105;28;20044;-70
2023/12/04 06:27:20;;;;;;;33.00;11.02;;;;;;;;;;5809781;28;20060;-70
2023/12/04 06:30:11;;;;;;;28.25;14.45;;;;;;;;;;5793509;28;20056;-70
2023/12/04 06:33:03;;;;;;;33.65;13.88;;;;;;;;;;5793684;28;20054;-70
2023/12/04 06:35:54;;;;;;;30.33;14.13;;;;;;;;;;5795351;28;20043;-70
2023/12/04 06:38:47;;;;;;;30.25;12.07;;;;;;;;;;5795246;28;20053;-70
2023/12/04 06:41:40;;;;;;;38.85;14.00;;;;;;;;;;5793396;28;20039;-70
2023/12/04 06:44:31;;;;;;;28.92;13.38;;;;;;;;;;5809405;28;20043;-70
2023/12/04 06:47:23;;;;;;;41.53;14.90;;;;;;;;;;5795993;28;20046;-70
2023/12/04 06:50:14;;;;;;;65.28;16.38;;;;;;;;;;5809455;28;20046;-70
2023/12/04 06:53:05;;;;;;;49.38;21.25;;;;;;;;;;5794757;28;20055;-70
2023/12/04 06:55:55;;;;;;;64.70;23.50;;;;;;;;;;5795464;28;20051;-70
2023/12/04 06:58:46;;;;;;;69.18;23.65;;;;;;;;;;5793168;28;20398;-70
2023/12/04 07:01:37;;;;;;;71.38;23.38;;;;;;;;;;5794162;28;20049;-69
2023/12/04 07:04:28;;;;;;;70.30;24.95;;;;;;;;;;5794322;28;20049;-70
2023/12/04 07:07:19;;;;;;;92.43;26.98;;;;;;;;;;5794431;28;20061;-70
2023/12/04 07:10:14;;;;;;;71.18;20.70;;;;;;;;;;5794160;28;20072;-70
2023/12/04 07:13:06;;;;;;;52.88;19.90;;;;;;;;;;5792998;28;20047;-71
2023/12/04 07:15:59;;;;;;;62.45;19.00;;;;;;;;;;5794668;28;20043;-70
2023/12/04 07:18:50;;;;;;;72.25;19.75;;;;;;;;;;5794570;28;20074;-70
2023/12/04 07:21:42;;;;;;;59.03;19.48;;;;;;;;;;5792669;28;20043;-70
2023/12/04 07:24:32;;;;;;;61.20;19.05;;;;;;;;;;5792791;28;20138;-70
2023/12/04 07:27:23;;;;;;;63.80;22.60;;;;;;;;;;5795467;28;20518;-70
2023/12/04 07:30:14;;;;;;;48.17;18.25;;;;;;;;;;5798831;28;20047;-70
2023/12/04 07:33:08;;;;;;;61.63;18.38;;;;;;;;;;5797581;28;20058;-70
2023/12/04 07:36:01;;;;;;;43.22;16.40;;;;;;;;;;5830193;28;20050;-70
2023/12/04 07:38:53;;;;;;;45.67;18.38;;;;;;;;;;5798661;28;20043;-69
2023/12/04 07:41:44;;;;;;;88.13;21.25;;;;;;;;;;5798465;28;20047;-70
2023/12/04 07:44:35;;;;;;;51.90;18.52;;;;;;;;;;5797051;28;20047;-69
2023/12/04 07:47:26;;;;;;;51.35;18.73;;;;;;;;;;5798320;28;20054;-70
2023/12/04 07:50:17;;;;;;;63.45;18.30;;;;;;;;;;5797020;28;20042;-70
2023/12/04 07:53:09;;;;;;;66.43;19.02;;;;;;;;;;5798309;28;20437;-71
2023/12/04 07:56:03;;;;;;;63.20;21.58;;;;;;;;;;5798893;28;20043;-70
2023/12/04 07:58:54;;;;;;;58.40;17.33;;;;;;;;;;5813198;28;20050;-70
2023/12/04 08:01:45;;;;;;;33.08;14.20;;;;;;;;;;5796756;28;20043;-70
2023/12/04 08:04:36;;;;;;;34.58;15.18;;;;;;;;;;5796736;28;20053;-70
2023/12/04 08:07:27;;;;;;;41.88;15.20;;;;;;;;;;5796830;28;20054;-70
2023/12/04 08:10:18;;;;;;;36.15;14.30;;;;;;;;;;5798070;28;20133;-70
2023/12/04 08:13:08;;;;;;;49.40;22.50;;;;;;;;;;5796581;28;20189;-71
2023/12/04 08:16:00;;;;;;;79.93;31.98;;;;;;;;;;5797179;28;20464;-70
2023/12/04 08:18:51;;;;;;;82.97;28.95;;;;;;;;;;5796967;28;20067;-70
2023/12/04 08:21:42;;;;;;;53.80;25.88;;;;;;;;;;5797861;28;20047;-70
2023/12/04 08:24:33;;;;;;;57.38;25.88;;;;;;;;;;5796323;28;20039;-70
2023/12/04 08:27:24;;;;;;;60.72;28.27;;;;;;;;;;5798051;28;20043;-69
2023/12/04 08:30:15;;;;;;;25.13;15.57;;;;;;;;;;5780370;28;20047;-70
2023/12/04 08:33:06;;;;;;;59.45;17.33;;;;;;;;;;5796173;28;20416;-71
2023/12/04 08:35:57;;;;;;;28.75;14.32;;;;;;;;;;5797809;28;20051;-70
2023/12/04 08:38:48;;;;;;;24.50;12.30;;;;;;;;;;5797172;28;20504;-70
2023/12/04 08:41:39;;;;;;;34.65;16.67;;;;;;;;;;5796982;28;20051;-70
2023/12/04 08:44:40;;;;;;;33.20;12.82;;;;;;;;;;5795986;28;20055;-70
2023/12/04 08:47:31;;;;;;;22.40;11.15;;;;;;;;;;5795947;28;20042;-70
2023/12/04 08:50:22;;;;;;;22.40;11.15;;;;;;;;;;5795888;28;20043;-71
2023/12/04 08:53:12;;;;;;;25.98;10.98;;;;;;;;;;5796952;28;20051;-71
2023/12/04 08:56:04;;;;;;;16.10;9.80;;;;;;;;;;5795802;28;20078;-71
2023/12/04 08:58:55;;;;;;;19.70;9.52;;;;;;;;;;5797426;28;20051;-71
2023/12/04 09:01:46;;;;;;;12.63;7.35;;;;;;;;;;5795388;28;20053;-71
2023/12/04 09:04:37;;;;;;;14.82;8.73;;;;;;;;;;5795475;28;20390;-71
2023/12/04 09:07:29;;;;;;;20.92;10.68;;;;;;;;;;5795474;28;20038;-71
2023/12/04 09:10:22;;;;;;;35.63;18.65;;;;;;;;;;5811220;28;20087;-71
2023/12/04 09:13:33;;;;;;;68.63;25.92;;;;;;;;;;5796591;28;20177;-71
2023/12/04 09:16:24;;;;;;;80.28;23.83;;;;;;;;;;5795305;28;20417;-71
2023/12/04 09:19:15;;;;;;;43.22;14.32;;;;;;;;;;5796578;28;20493;-72
2023/12/04 09:22:08;;;;;;;18.00;8.98;;;;;;;;;;5796397;28;20106;-72
2023/12/04 09:25:09;;;;;;;20.38;8.23;;;;;;;;;;5796190;28;20050;-72
2023/12/04 09:28:00;;;;;;;14.05;7.45;;;;;;;;;;5796929;28;20050;-71
2023/12/04 09:30:51;;;;;;;18.52;10.82;;;;;;;;;;5811253;28;20062;-71
2023/12/04 09:33:42;;;;;;;17.75;9.43;;;;;;;;;;5794739;28;20054;-71
2023/12/04 09:36:33;;;;;;;12.98;7.95;;;;;;;;;;5826951;28;20071;-71
2023/12/04 09:39:24;;;;;;;22.80;9.38;;;;;;;;;;5794834;28;20438;-71
2023/12/04 09:42:18;;;;;;;46.95;16.08;;;;;;;;;;5795999;28;20057;-72
2023/12/04 09:45:10;;;;;;;27.30;14.32;;;;;;;;;;5810527;28;20097;-72
2023/12/04 09:48:01;;;;;;;30.30;13.85;;;;;;;;;;5795895;28;20453;-72
2023/12/04 09:50:53;;;;;;;27.48;14.25;;;;;;;;;;5778245;28;20929;-71
2023/12/04 09:53:48;;;;;;;34.83;12.57;;;;;;;;;;5794486;28;20062;-71
2023/12/04 09:56:39;;;;;;;19.80;10.73;;;;;;;;;;5810348;28;20046;-72
2023/12/04 09:59:31;;;;;;;31.35;12.57;;;;;;;;;;5794200;28;20042;-72
2023/12/04 10:02:21;;;;;;;18.67;9.70;;;;;;;;;;5778224;28;20050;-72
2023/12/04 10:05:13;;;;;;;20.90;10.35;;;;;;;;;;5795366;28;20051;-72
2023/12/04 10:08:04;;;;;;;22.05;12.05;;;;;;;;;;5795422;28;20109;-72
2023/12/04 10:10:55;;;;;;;25.25;9.00;;;;;;;;;;5795848;28;20508;-72
2023/12/04 10:13:46;;;;;;;20.73;11.02;;;;;;;;;;5795371;28;20051;-72
2023/12/04 10:16:49;;;;;;;16.95;8.30;;;;;;;;;;5794116;28;20047;-72
2023/12/04 10:19:40;;;;;;;11.43;7.60;;;;;;;;;;5793821;28;20492;-72
2023/12/04 10:22:31;;;;;;;10.68;6.15;;;;;;;;;;5795234;28;20039;-72
2023/12/04 10:25:25;;;;;;;17.52;8.75;;;;;;;;;;5793655;28;20524;-73
2023/12/04 10:28:17;;;;;;;16.92;6.68;;;;;;;;;;5794877;28;20512;-73
2023/12/04 10:31:09;;;;;;;11.95;5.78;;;;;;;;;;5777836;28;20058;-72
2023/12/04 10:34:01;;;;;;;15.98;7.60;;;;;;;;;;5794021;28;20065;-72
2023/12/04 10:36:53;;;;;;;7.95;5.50;;;;;;;;;;5793748;28;20042;-72
2023/12/04 10:39:48;;;;;;;6.85;3.97;;;;;;;;;;5825755;28;20398;-72
2023/12/04 10:42:39;;;;;;;10.00;6.10;;;;;;;;;;5793300;28;20049;-72
2023/12/04 10:45:30;;;;;;;10.63;5.65;;;;;;;;;;5794755;28;20521;-72
2023/12/04 10:48:21;;;;;;;8.63;6.65;;;;;;;;;;5794438;28;20050;-73
2023/12/04 10:51:12;;;;;;;8.40;5.82;;;;;;;;;;5793210;28;20051;-72
2023/12/04 10:54:05;;;;;;;10.25;5.05;;;;;;;;;;5777393;28;20054;-73
2023/12/04 10:57:04;;;;;;;8.82;4.25;;;;;;;;;;5793740;28;20055;-72
2023/12/04 11:00:02;;;;;;;;;;;;;;;;;;5793859;28;20120;-72
2023/12/04 11:02:56;;;;;;;13.40;4.25;;;;;;;;;;5778242;28;19922;-73
2023/12/04 11:05:59;;;;;;;56.85;23.45;;;;;;;;;;5776992;28;20049;-73
2023/12/04 11:08:53;;;;;;;31.65;11.63;;;;;;;;;;5794064;28;20054;-72
2023/12/04 11:11:48;;;;;;;21.70;7.95;;;;;;;;;;5794224;28;20050;-72
2023/12/04 11:14:59;;;;;;;12.93;8.07;;;;;;;;;;5794007;28;20042;-73
2023/12/04 11:17:58;;;;;;;14.25;6.60;;;;;;;;;;5808864;28;20045;-72
2023/12/04 11:21:06;;;;;;;5.97;4.03;;;;;;;;;;5792865;28;20039;-73
2023/12/04 11:23:58;;;;;;;5.60;4.00;;;;;;;;;;5793186;28;20043;-73
2023/12/04 11:26:49;;;;;;;4.15;3.20;;;;;;;;;;5792749;28;20046;-73
2023/12/04 11:29:40;;;;;;;4.75;2.72;;;;;;;;;;5792625;28;20416;-73
2023/12/04 11:32:31;;;;;;;5.78;3.30;;;;;;;;;;5792657;28;20432;-73
2023/12/04 11:35:25;;;;;;;8.60;2.25;;;;;;;;;;5792693;28;20141;-73
2023/12/04 11:38:19;;;;;;;4.28;2.45;;;;;;;;;;5792645;28;20065;-73
2023/12/04 11:41:21;;;;;;;4.63;1.98;;;;;;;;;;5792414;28;20050;-73
2023/12/04 11:44:18;;;;;;;7.07;3.10;;;;;;;;;;5793954;28;20440;-73
2023/12/04 11:47:11;;;;;;;4.78;2.85;;;;;;;;;;5793839;28;20134;-73
2023/12/04 11:50:04;;;;;;;8.82;4.22;;;;;;;;;;5792562;28;20528;-73
2023/12/04 11:52:55;;;;;;;14.15;8.40;;;;;;;;;;5794536;28;20389;-73
2023/12/04 11:55:46;;;;;;;9.15;4.32;;;;;;;;;;5792903;28;20416;-73
2023/12/04 11:58:47;;;;;;;15.07;4.97;;;;;;;;;;5792350;28;20055;-73
2023/12/04 12:01:37;;;;;;;9.45;4.75;;;;;;;;;;5792285;28;20572;-73
2023/12/04 12:04:28;;;;;;;8.52;5.03;;;;;;;;;;5792260;28;20047;-73
2023/12/04 12:07:23;;;;;;;7.38;3.75;;;;;;;;;;5824004;28;20046;-73
2023/12/04 12:10:15;;;;;;;6.60;4.03;;;;;;;;;;5792130;28;20062;-73
2023/12/04 12:13:06;;;;;;;15.68;5.38;;;;;;;;;;5792894;28;20055;-73
2023/12/04 12:15:58;;;;;;;15.60;7.40;;;;;;;;;;5798208;28;20054;-72
2023/12/04 12:18:49;;;;;;;12.82;7.35;;;;;;;;;;5796709;28;20417;-72
2023/12/04 12:21:40;;;;;;;7.45;4.13;;;;;;;;;;5796213;28;20145;-72
2023/12/04 12:24:31;;;;;;;5.90;2.78;;;;;;;;;;5796456;28;20050;-72
2023/12/04 12:27:25;;;;;;;6.53;3.60;;;;;;;;;;5797855;28;20117;-72
2023/12/04 12:30:16;;;;;;;3.85;2.63;;;;;;;;;;5796084;28;20070;-72
2023/12/04 12:33:08;;;;;;;7.28;3.35;;;;;;;;;;5811969;28;20540;-72
2023/12/04 12:36:00;;;;;;;5.55;2.35;;;;;;;;;;5828821;28;20085;-72
2023/12/04 12:38:54;;;;;;;3.00;1.80;;;;;;;;;;5796307;28;20042;-72
2023/12/04 12:41:50;;;;;;;2.85;2.53;;;;;;;;;;5796046;28;20053;-72
2023/12/04 12:44:42;;;;;;;4.65;2.28;;;;;;;;;;5796366;28;20053;-72
2023/12/04 12:47:35;;;;;;;3.72;2.63;;;;;;;;;;5818019;28;20100;-73
2023/12/04 12:50:27;;;;;;;4.38;2.75;;;;;;;;;;5807607;28;20043;-73
2023/12/04 12:53:18;;;;;;;22.85;4.28;;;;;;;;;;5816753;28;20071;-73
2023/12/04 12:56:10;;;;;;;3.63;2.25;;;;;;;;;;5816815;28;20053;-73
2023/12/04 12:59:00;;;;;;;3.55;2.28;;;;;;;;;;5816710;28;20199;-73
2023/12/04 13:01:52;;;;;;;1.48;1.27;;;;;;;;;;5800680;28;20047;-72
2023/12/04 13:04:44;;;;;;;3.88;2.05;;;;;;;;;;5816998;28;20051;-72
2023/12/04 13:07:35;;;;;;;3.08;2.60;;;;;;;;;;5817660;28;20053;-72
2023/12/04 13:10:26;;;;;;;5.40;3.20;;;;;;;;;;5818897;28;20501;-72
2023/12/04 13:13:17;;;;;;;5.60;3.38;;;;;;;;;;5817319;28;20125;-73
2023/12/04 13:19:07;;;;;;;3.00;2.28;;;;;;;;;;6167594;23;20241;-73
2023/12/04 13:21:58;;;;;;;3.38;1.63;;;;;;;;;;5797651;28;20133;-80
2023/12/04 13:24:48;;;;;;;2.85;2.22;;;;;;;;;;5796213;28;20042;-79
2023/12/04 13:27:39;;;;;;;3.00;1.67;;;;;;;;;;5779913;28;20514;-80
2023/12/04 13:30:30;;;;;;;3.55;2.33;;;;;;;;;;5766526;28;20050;-80
2023/12/04 13:33:21;;;;;;;28.48;9.23;;;;;;;;;;5782692;28;20058;-80
2023/12/04 13:36:12;;;;;;;21.60;7.13;;;;;;;;;;5796766;28;20055;-79
2023/12/04 13:39:04;;;;;;;11.65;5.80;;;;;;;;;;5789112;28;20055;-79
2023/12/04 13:45:09;;;;;;;14.98;4.53;;;;;;;;;;5795342;28;20046;-79
2023/12/04 13:48:00;;;;;;;25.20;6.80;;;;;;;;;;5796011;28;20169;-79
2023/12/04 13:50:50;;;;;;;10.15;4.13;;;;;;;;;;5793088;28;20491;-79
2023/12/04 13:53:44;;;;;;;79.40;25.58;;;;;;;;;;5796359;28;20047;-79
2023/12/04 13:56:45;;;;;;;50.40;12.98;;;;;;;;;;5795056;28;20126;-79
2023/12/04 13:59:39;;;;;;;94.90;26.77;;;;;;;;;;5786315;28;20125;-79
2023/12/04 14:02:30;;;;;;;66.32;21.83;;;;;;;;;;5776352;28;20362;-79
2023/12/04 14:05:21;;;;;;;228.68;69.43;;;;;;;;;;5794900;28;20055;-79
2023/12/04 14:08:12;;;;;;;178.07;55.45;;;;;;;;;;5794632;28;20746;-79
2023/12/04 14:11:05;;;;;;;172.13;52.25;;;;;;;;;;5795492;28;20051;-79
2023/12/04 14:13:55;;;;;;;58.83;20.90;;;;;;;;;;5794764;28;20427;-79
2023/12/04 14:16:47;;;;;;;22.42;10.13;;;;;;;;;;5795140;28;20050;-78
2023/12/04 14:19:39;;;;;;;35.08;9.80;;;;;;;;;;5793930;28;20042;-79
2023/12/04 14:22:30;;;;;;;34.38;10.00;;;;;;;;;;5793693;28;20046;-79
2023/12/04 14:25:21;;;;;;;95.47;33.72;;;;;;;;;;5793566;28;20540;-78
2023/12/04 14:28:12;;;;;;;116.28;30.92;;;;;;;;;;5793537;28;20050;-78
2023/12/04 14:31:04;;;;;;;64.45;18.20;;;;;;;;;;5793763;28;20612;-78
2023/12/04 14:33:55;;;;;;;45.58;13.70;;;;;;;;;;5778496;28;20046;-78
2023/12/04 14:36:47;;;;;;;45.72;17.77;;;;;;;;;;5793012;28;20062;-78
2023/12/04 14:39:37;;;;;;;75.28;21.92;;;;;;;;;;5793590;28;20042;-79
2023/12/04 14:42:28;;;;;;;50.03;16.73;;;;;;;;;;5793311;28;20416;-78
2023/12/04 14:45:20;;;;;;;35.05;12.75;;;;;;;;;;5793572;28;20076;-79
2023/12/04 14:48:11;;;;;;;57.55;19.30;;;;;;;;;;5793346;28;20514;-78
2023/12/04 14:51:03;;;;;;;43.97;15.63;;;;;;;;;;5793144;28;20053;-79
2023/12/04 15:07:07;;;;;;;41.67;17.05;;;;;;;;;;5794276;28;20057;-79
2023/12/04 15:10:12;;;;;;;35.83;13.10;;;;;;;;;;5791458;28;20094;-79
2023/12/04 15:21:55;;;;;;;28.13;10.23;;;;;;;;;;5793071;28;19922;-79
2023/12/04 15:24:46;;;;;;;75.90;27.23;;;;;;;;;;5794162;28;20047;-79
2023/12/04 15:27:37;;;;;;;94.85;37.97;;;;;;;;;;5792634;28;20045;-79
2023/12/04 15:30:29;;;;;;;80.10;29.67;;;;;;;;;;5792643;28;20522;-79
2023/12/04 15:33:20;;;;;;;62.67;21.98;;;;;;;;;;5776716;28;20095;-79
2023/12/04 15:36:11;;;;;;;33.58;16.63;;;;;;;;;;5792496;28;20061;-79
2023/12/04 15:39:02;;;;;;;42.97;17.15;;;;;;;;;;5776647;28;20055;-79
2023/12/04 15:41:53;;;;;;;50.35;21.40;;;;;;;;;;5793106;28;20046;-78
2023/12/04 15:44:44;;;;;;;68.60;22.80;;;;;;;;;;5793724;28;20178;-79
2023/12/04 15:47:35;;;;;;;73.00;24.85;;;;;;;;;;5793631;28;20049;-79
2023/12/04 15:50:26;;;;;;;66.38;18.50;;;;;;;;;;5798012;28;20100;-79
2023/12/04 15:53:18;;;;;;;74.35;20.92;;;;;;;;;;5796976;28;20066;-79
2023/12/04 15:56:09;;;;;;;123.07;35.45;;;;;;;;;;5796875;28;20143;-79
2023/12/04 15:59:00;;;;;;;60.22;20.73;;;;;;;;;;5797135;28;20055;-78
2023/12/04 16:01:51;;;;;;;65.28;23.80;;;;;;;;;;5796901;28;20488;-78
2023/12/04 16:04:42;;;;;;;67.72;24.98;;;;;;;;;;5798066;28;20064;-78
2023/12/04 16:07:33;;;;;;;111.50;31.90;;;;;;;;;;5796787;28;20481;-78
2023/12/04 16:10:24;;;;;;;71.80;23.20;;;;;;;;;;5796580;28;20051;-78
2023/12/04 16:13:16;;;;;;;78.80;24.52;;;;;;;;;;5796395;28;20047;-79
2023/12/04 16:16:07;;;;;;;61.85;21.25;;;;;;;;;;5797873;28;20201;-79
2023/12/04 16:18:58;;;;;;;84.40;26.75;;;;;;;;;;5797968;28;20047;-78
2023/12/04 16:21:49;;;;;;;57.25;21.27;;;;;;;;;;5796419;28;20051;-79
2023/12/04 16:24:40;;;;;;;60.55;21.95;;;;;;;;;;5796169;28;20046;-79
2023/12/04 16:27:31;;;;;;;71.40;25.33;;;;;;;;;;5797490;28;20059;-78
2023/12/04 16:30:22;;;;;;;37.78;15.52;;;;;;;;;;5796231;28;20043;-79
2023/12/04 16:33:13;;;;;;;43.00;13.10;;;;;;;;;;5796119;28;20142;-79
2023/12/04 16:36:05;;;;;;;38.67;12.88;;;;;;;;;;5797370;28;20058;-79
2023/12/04 16:38:55;;;;;;;33.42;12.05;;;;;;;;;;5796378;28;20053;-78
2023/12/04 16:41:47;;;;;;;21.85;8.95;;;;;;;;;;5795829;28;20519;-78
2023/12/04 16:44:38;;;;;;;30.13;12.50;;;;;;;;;;5795709;28;20047;-79
2023/12/04 16:47:30;;;;;;;37.38;13.05;;;;;;;;;;5795664;28;20138;-79
2023/12/04 16:50:23;;;;;;;39.08;14.35;;;;;;;;;;5795909;28;20126;-78
2023/12/04 16:53:14;;;;;;;32.95;11.32;;;;;;;;;;5797000;28;20416;-79
2023/12/04 16:56:12;;;;;;;28.90;10.45;;;;;;;;;;5779734;28;20051;-79
2023/12/04 16:59:03;;;;;;;23.90;11.47;;;;;;;;;;5795412;28;20105;-79
2023/12/04 17:01:54;;;;;;;23.08;11.20;;;;;;;;;;5795919;28;20043;-79
2023/12/04 17:04:45;;;;;;;17.42;9.23;;;;;;;;;;5770987;28;20121;-78
2023/12/04 17:07:36;;;;;;;21.08;7.63;;;;;;;;;;5771583;28;20054;-78
2023/12/04 17:10:28;;;;;;;12.45;6.68;;;;;;;;;;5774451;28;20055;-78
2023/12/04 17:13:20;;;;;;;14.98;8.02;;;;;;;;;;5772803;28;20058;-78
2023/12/04 17:16:10;;;;;;;20.33;8.23;;;;;;;;;;5774102;28;20066;-79
2023/12/04 17:19:01;;;;;;;27.63;11.73;;;;;;;;;;5772604;28;20503;-79